createdAt,value
2022-08-21T00:02:18.599Z,25.30
2022-08-21T00:04:56.901Z,28.60
2022-08-21T00:07:29.416Z,33.50
2022-08-21T00:10:01.155Z,28.50
2022-08-21T00:12:33.150Z,29.10
2022-08-21T00:15:04.805Z,34.40
2022-08-21T00:17:40.338Z,24.40
2022-08-21T00:20:13.738Z,27.40
2022-08-21T00:22:45.566Z,27.20
2022-08-21T00:27:47.797Z,31.00
2022-08-21T00:30:23.131Z,29.40
2022-08-21T00:32:55.878Z,35.10
2022-08-21T00:35:29.753Z,18.00
2022-08-21T00:38:01.422Z,33.10
2022-08-21T00:43:05.252Z,41.50
2022-08-21T00:45:36.864Z,30.90
2022-08-21T00:50:40.739Z,31.80
2022-08-21T00:53:12.664Z,43.40
2022-08-21T00:55:44.272Z,23.00
2022-08-21T00:58:17.487Z,28.60
2022-08-21T01:00:51.343Z,27.50
2022-08-21T01:03:24.204Z,26.30
2022-08-21T01:05:55.787Z,33.20
2022-08-21T01:10:57.680Z,30.70
2022-08-21T01:13:31.843Z,28.40
2022-08-21T01:16:04.852Z,25.50
2022-08-21T01:18:37.580Z,28.50
2022-08-21T01:21:14.993Z,27.00
2022-08-21T01:23:47.665Z,27.80
2022-08-21T01:26:21.660Z,28.20
2022-08-21T01:28:56.844Z,29.60
2022-08-21T01:31:29.276Z,19.90
2022-08-21T01:34:01.086Z,26.10
2022-08-21T01:39:04.045Z,17.20
2022-08-21T01:41:35.892Z,31.00
2022-08-21T01:44:07.875Z,22.80
2022-08-21T01:46:39.439Z,32.80
2022-08-21T01:51:41.591Z,23.10
2022-08-21T01:54:13.580Z,23.80
2022-08-21T01:59:16.617Z,30.90
2022-08-21T02:04:18.349Z,33.20
2022-08-21T02:06:50.245Z,28.50
2022-08-21T02:09:22.888Z,30.80
2022-08-21T02:11:56.144Z,23.80
2022-08-21T02:17:08.937Z,23.10
2022-08-21T02:19:41.309Z,29.30
2022-08-21T02:22:13.217Z,14.90
2022-08-21T02:24:54.027Z,27.90
2022-08-21T02:27:27.652Z,26.90
2022-08-21T02:30:00.052Z,29.50
2022-08-21T02:32:32.473Z,24.20
2022-08-21T02:35:04.224Z,29.90
2022-08-21T02:40:06.838Z,22.10
2022-08-21T02:42:38.590Z,31.80
2022-08-21T02:47:40.619Z,30.60
2022-08-21T02:50:12.812Z,25.50
2022-08-21T02:52:44.496Z,23.70
2022-08-21T02:57:46.679Z,28.60
2022-08-21T03:00:19.070Z,27.70
2022-08-21T03:02:50.981Z,20.80
2022-08-21T03:05:22.783Z,21.60
2022-08-21T03:07:54.551Z,27.00
2022-08-21T03:12:56.596Z,27.60
2022-08-21T03:15:28.713Z,32.90
2022-08-21T03:18:00.517Z,29.90
2022-08-21T03:20:33.786Z,29.60
2022-08-21T03:23:12.483Z,24.90
2022-08-21T03:25:46.531Z,20.60
2022-08-21T03:28:20.573Z,21.10
2022-08-21T03:30:53.225Z,27.50
2022-08-21T03:33:25.358Z,20.30
2022-08-21T03:36:02.658Z,27.90
2022-08-21T03:38:34.921Z,20.60
2022-08-21T03:41:08.142Z,23.30
2022-08-21T03:43:40.026Z,23.20
2022-08-21T03:46:12.129Z,36.10
2022-08-21T03:48:43.903Z,32.50
2022-08-21T03:51:16.853Z,22.40
2022-08-21T03:53:48.601Z,28.60
2022-08-21T03:56:20.676Z,28.50
2022-08-21T03:58:52.370Z,20.20
2022-08-21T04:03:54.086Z,21.80
2022-08-21T04:08:55.926Z,13.80
2022-08-21T04:11:27.847Z,26.70
2022-08-21T04:13:59.326Z,25.90
2022-08-21T04:16:32.129Z,21.80
2022-08-21T04:19:04.883Z,33.10
2022-08-21T04:21:36.403Z,20.50
2022-08-21T04:24:08.634Z,33.10
2022-08-21T04:26:40.395Z,23.00
2022-08-21T04:29:12.646Z,27.20
2022-08-21T04:31:44.878Z,40.60
2022-08-21T04:34:16.315Z,27.10
2022-08-21T04:36:47.910Z,17.50
2022-08-21T04:39:19.422Z,29.40
2022-08-21T04:41:50.940Z,24.40
2022-08-21T04:44:22.461Z,32.30
2022-08-21T04:46:54.024Z,24.80
2022-08-21T04:49:25.619Z,25.20
2022-08-21T04:52:07.656Z,21.10
2022-08-21T04:54:39.217Z,32.30
2022-08-21T04:57:12.296Z,30.00
2022-08-21T04:59:45.691Z,24.90
2022-08-21T05:02:17.187Z,42.90
2022-08-21T05:04:52.576Z,29.40
2022-08-21T05:07:41.883Z,22.10
2022-08-21T05:10:15.237Z,33.40
2022-08-21T05:12:46.856Z,20.40
2022-08-21T05:17:53.619Z,31.90
2022-08-21T05:20:32.643Z,39.20
2022-08-21T05:23:04.289Z,24.30
2022-08-21T05:28:07.021Z,31.20
2022-08-21T05:30:40.280Z,34.70
2022-08-21T05:33:11.856Z,27.80
2022-08-21T05:38:16.715Z,42.30
2022-08-21T05:40:50.658Z,36.70
2022-08-21T05:43:22.192Z,38.90
2022-08-21T05:45:53.839Z,40.50
2022-08-21T05:48:26.903Z,33.70
2022-08-21T05:50:58.719Z,41.70
2022-08-21T05:53:30.358Z,31.20
2022-08-21T05:58:32.024Z,28.00
2022-08-21T06:03:35.191Z,29.10
2022-08-21T06:06:07.329Z,41.30
2022-08-21T06:08:39.364Z,38.10
2022-08-21T06:11:11.188Z,48.90
2022-08-21T06:13:43.290Z,39.60
2022-08-21T06:16:16.822Z,60.60
2022-08-21T06:18:48.371Z,55.60
2022-08-21T06:21:20.142Z,45.50
2022-08-21T06:23:51.707Z,42.00
2022-08-21T06:26:23.667Z,67.80
2022-08-21T06:28:55.542Z,52.50
2022-08-21T06:31:28.687Z,59.40
2022-08-21T06:34:00.326Z,59.80
2022-08-21T06:36:31.918Z,79.80
2022-08-21T06:39:03.641Z,80.20
2022-08-21T06:41:48.717Z,77.90
2022-08-21T06:46:51.602Z,120.50
2022-08-21T06:51:53.980Z,113.20
2022-08-21T06:54:25.693Z,92.60
2022-08-21T06:56:57.502Z,99.50
2022-08-21T06:59:29.212Z,138.20
2022-08-21T07:02:00.835Z,122.20
2022-08-21T07:04:32.893Z,85.00
2022-08-21T07:07:04.805Z,119.30
2022-08-21T07:12:07.744Z,117.50
2022-08-21T07:14:39.341Z,126.10
2022-08-21T07:17:10.936Z,128.60
2022-08-21T07:22:12.486Z,126.80
2022-08-21T07:27:14.139Z,103.50
2022-08-21T07:29:47.425Z,107.70
2022-08-21T07:32:21.358Z,114.00
2022-08-21T07:34:53.223Z,106.30
2022-08-21T07:37:25.602Z,111.30
2022-08-21T07:39:57.814Z,86.50
2022-08-21T07:42:29.530Z,99.40
2022-08-21T07:47:42.433Z,98.70
2022-08-21T07:50:14.457Z,106.70
2022-08-21T07:55:17.915Z,65.90
2022-08-21T07:57:50.674Z,78.60
2022-08-21T08:00:23.878Z,85.50
2022-08-21T08:02:55.902Z,94.80
2022-08-21T08:05:29.657Z,91.20
2022-08-21T08:08:01.272Z,99.90
2022-08-21T08:13:03.194Z,90.50
2022-08-21T08:15:37.617Z,90.20
2022-08-21T08:18:09.846Z,98.60
2022-08-21T08:20:41.957Z,73.80
2022-08-21T08:23:15.552Z,97.00
2022-08-21T08:25:47.820Z,73.80
2022-08-21T08:28:19.634Z,103.30
2022-08-21T08:30:51.641Z,75.90
2022-08-21T08:33:23.855Z,77.60
2022-08-21T08:35:55.593Z,69.40
2022-08-21T08:38:28.092Z,86.40
2022-08-21T08:41:05.202Z,94.70
2022-08-21T08:43:36.879Z,83.50
2022-08-21T08:46:13.287Z,71.20
2022-08-21T08:48:53.613Z,97.20
2022-08-21T08:51:27.370Z,89.20
2022-08-21T08:54:01.306Z,83.60
2022-08-21T08:56:34.795Z,86.80
2022-08-21T08:59:12.598Z,79.40
2022-08-21T09:01:44.965Z,90.80
2022-08-21T09:04:16.699Z,75.00
2022-08-21T09:07:07.989Z,79.20
2022-08-21T09:09:46.059Z,91.20
2022-08-21T09:12:21.926Z,83.60
2022-08-21T09:15:01.340Z,64.00
2022-08-21T09:17:47.388Z,64.20
2022-08-21T09:20:24.845Z,73.50
2022-08-21T09:23:03.178Z,71.70
2022-08-21T09:25:36.000Z,73.60
2022-08-21T09:28:07.966Z,59.30
2022-08-21T09:30:40.576Z,64.10
2022-08-21T09:33:14.263Z,80.70
2022-08-21T09:35:55.421Z,70.30
2022-08-21T09:38:32.908Z,58.40
2022-08-21T09:41:06.226Z,54.10
2022-08-21T09:43:37.847Z,54.80
2022-08-21T09:46:12.434Z,71.90
2022-08-21T09:48:49.110Z,55.80
2022-08-21T09:51:25.681Z,53.10
2022-08-21T09:53:59.659Z,48.80
2022-08-21T09:56:51.977Z,46.90
2022-08-21T09:59:36.405Z,46.90
2022-08-21T10:02:27.520Z,47.60
2022-08-21T10:05:00.411Z,41.80
2022-08-21T10:07:33.195Z,35.10
2022-08-21T10:10:07.094Z,41.60
2022-08-21T10:12:44.479Z,44.50
2022-08-21T10:15:20.644Z,41.60
2022-08-21T10:18:03.905Z,39.60
2022-08-21T10:20:39.991Z,52.00
2022-08-21T10:23:21.942Z,43.40
2022-08-21T10:25:57.076Z,37.30
2022-08-21T10:28:49.738Z,30.40
2022-08-21T10:31:23.563Z,37.30
2022-08-21T10:34:00.628Z,40.70
2022-08-21T10:36:36.920Z,37.80
2022-08-21T10:39:35.542Z,42.40
2022-08-21T10:42:15.014Z,53.50
2022-08-21T10:44:52.103Z,36.20
2022-08-21T10:47:26.554Z,36.50
2022-08-21T10:50:00.732Z,41.30
2022-08-21T10:52:54.683Z,47.30
2022-08-21T10:55:29.477Z,52.40
2022-08-21T10:58:02.025Z,29.10
2022-08-21T11:00:36.419Z,51.50
2022-08-21T11:03:09.883Z,46.00
2022-08-21T11:05:46.504Z,101.40
2022-08-21T11:08:24.268Z,40.60
2022-08-21T11:11:00.241Z,43.80
2022-08-21T11:13:41.594Z,38.70
2022-08-21T11:16:22.000Z,70.00
2022-08-21T11:18:56.306Z,62.60
2022-08-21T11:21:34.863Z,62.20
2022-08-21T11:24:11.292Z,48.20
2022-08-21T11:26:46.297Z,41.60
2022-08-21T11:29:26.153Z,28.40
2022-08-21T11:32:06.320Z,50.60
2022-08-21T11:34:45.158Z,23.90
2022-08-21T11:37:20.205Z,32.80
2022-08-21T11:39:55.884Z,36.80
2022-08-21T11:42:31.137Z,34.70
2022-08-21T11:45:11.979Z,32.00
2022-08-21T11:47:53.969Z,39.80
2022-08-21T11:50:34.442Z,33.60
2022-08-21T11:53:10.621Z,36.30
2022-08-21T11:55:43.944Z,36.60
2022-08-21T11:58:16.976Z,26.10
2022-08-21T12:00:50.619Z,18.10
2022-08-21T12:03:38.397Z,30.10
2022-08-21T12:06:14.410Z,32.60
2022-08-21T12:09:03.149Z,32.70
2022-08-21T12:11:34.776Z,19.60
2022-08-21T12:14:16.784Z,31.20
2022-08-21T12:16:50.201Z,33.50
2022-08-21T12:19:33.923Z,35.80
2022-08-21T12:22:12.940Z,25.50
2022-08-21T12:24:45.536Z,32.00
2022-08-21T12:27:32.707Z,36.90
2022-08-21T12:30:06.003Z,43.90
2022-08-21T12:32:56.081Z,39.80
2022-08-21T12:35:30.831Z,29.90
2022-08-21T12:38:05.145Z,50.00
2022-08-21T12:40:41.620Z,44.50
2022-08-21T12:43:17.324Z,37.10
2022-08-21T12:45:50.614Z,27.40
2022-08-21T12:48:28.482Z,18.00
2022-08-21T12:51:02.014Z,36.00
2022-08-21T12:53:36.442Z,27.20
2022-08-21T12:56:10.621Z,35.40
2022-08-21T12:58:44.214Z,28.60
2022-08-21T13:01:22.280Z,39.00
2022-08-21T13:03:57.304Z,41.90
2022-08-21T13:06:43.151Z,40.90
2022-08-21T13:09:16.393Z,35.00
2022-08-21T13:11:49.807Z,33.30
2022-08-21T13:14:27.409Z,28.90
2022-08-21T13:16:59.842Z,25.70
2022-08-21T13:19:32.770Z,33.20
2022-08-21T13:22:04.723Z,21.30
2022-08-21T13:24:56.111Z,30.50
2022-08-21T13:27:29.590Z,17.20
2022-08-21T13:30:13.253Z,25.60
2022-08-21T13:32:47.327Z,34.40
2022-08-21T13:35:20.964Z,27.30
2022-08-21T13:37:53.487Z,22.40
2022-08-21T13:40:28.827Z,21.20
2022-08-21T13:43:00.593Z,26.50
2022-08-21T13:45:36.852Z,19.50
2022-08-21T13:48:08.742Z,25.20
2022-08-21T13:50:40.808Z,22.20
2022-08-21T13:53:24.265Z,15.40
2022-08-21T13:56:00.426Z,22.80
2022-08-21T13:58:34.212Z,14.80
2022-08-21T14:01:06.850Z,23.80
2022-08-21T14:03:41.195Z,18.60
2022-08-21T14:06:20.599Z,30.70
2022-08-21T14:08:54.188Z,20.40
2022-08-21T14:11:25.801Z,16.90
2022-08-21T14:14:01.593Z,14.60
2022-08-21T14:16:48.888Z,17.00
2022-08-21T14:19:25.913Z,14.40
2022-08-21T14:21:57.613Z,20.90
2022-08-21T14:24:36.582Z,17.00
2022-08-21T14:27:09.494Z,14.10
2022-08-21T14:29:42.033Z,16.40
2022-08-21T14:32:21.459Z,17.10
2022-08-21T14:34:54.499Z,16.90
2022-08-21T14:37:26.715Z,12.20
2022-08-21T14:39:59.103Z,18.90
2022-08-21T14:42:30.955Z,25.30
2022-08-21T14:45:13.342Z,17.10
2022-08-21T14:47:45.135Z,15.70
2022-08-21T14:50:17.099Z,20.00
2022-08-21T14:52:48.620Z,13.30
2022-08-21T14:55:21.699Z,19.20
2022-08-21T14:57:54.656Z,22.30
2022-08-21T15:00:36.047Z,15.30
2022-08-21T15:03:07.996Z,22.30
2022-08-21T15:05:39.668Z,11.50
2022-08-21T15:08:11.357Z,25.30
2022-08-21T15:11:08.249Z,22.40
2022-08-21T15:16:11.729Z,21.20
2022-08-21T15:18:44.266Z,24.30
2022-08-21T15:21:16.385Z,24.00
2022-08-21T15:23:47.848Z,26.20
2022-08-21T15:26:19.330Z,33.60
2022-08-21T15:28:51.412Z,26.00
2022-08-21T15:31:23.139Z,28.20
2022-08-21T15:33:54.672Z,29.70
2022-08-21T15:36:26.932Z,33.10
2022-08-21T15:38:58.580Z,25.40
2022-08-21T15:41:30.456Z,35.70
2022-08-21T15:44:02.051Z,35.10
2022-08-21T15:46:33.712Z,30.40
2022-08-21T15:49:05.473Z,21.00
2022-08-21T15:51:37.687Z,32.10
2022-08-21T15:54:15.462Z,28.80
2022-08-21T15:56:48.874Z,38.90
2022-08-21T15:59:23.869Z,31.70
2022-08-21T16:01:55.542Z,29.30
2022-08-21T16:04:28.499Z,29.90
2022-08-21T16:07:05.367Z,29.80
2022-08-21T16:09:39.350Z,22.40
2022-08-21T16:12:11.881Z,29.00
2022-08-21T16:14:43.687Z,25.50
2022-08-21T16:17:15.437Z,32.70
2022-08-21T16:19:47.627Z,24.20
2022-08-21T16:22:19.713Z,19.70
2022-08-21T16:24:51.389Z,27.00
2022-08-21T16:27:23.387Z,28.30
2022-08-21T16:29:59.164Z,25.50
2022-08-21T16:32:31.350Z,26.70
2022-08-21T16:35:02.900Z,19.80
2022-08-21T16:37:34.796Z,15.60
2022-08-21T16:42:37.761Z,21.90
2022-08-21T16:45:11.932Z,23.90
2022-08-21T16:47:45.015Z,26.30
2022-08-21T16:50:19.260Z,14.30
2022-08-21T16:52:51.159Z,20.70
2022-08-21T16:55:22.721Z,19.30
2022-08-21T17:00:24.416Z,21.10
2022-08-21T17:02:56.811Z,18.80
2022-08-21T17:05:28.531Z,17.40
2022-08-21T17:08:00.121Z,18.80
2022-08-21T17:13:05.181Z,21.20
2022-08-21T17:15:39.643Z,20.10
2022-08-21T17:18:12.341Z,20.60
2022-08-21T17:20:43.884Z,17.60
2022-08-21T17:25:48.245Z,22.60
2022-08-21T17:28:23.879Z,23.00
2022-08-21T17:30:56.076Z,24.40
2022-08-21T17:33:29.426Z,13.40
2022-08-21T17:36:02.065Z,17.60
2022-08-21T17:38:33.843Z,21.20
2022-08-21T17:41:06.573Z,23.60
2022-08-21T17:43:38.271Z,22.00
2022-08-21T17:46:09.760Z,19.50
2022-08-21T17:51:12.101Z,26.70
2022-08-21T17:53:45.289Z,23.00
2022-08-21T17:56:17.674Z,23.70
2022-08-21T17:58:50.656Z,24.60
2022-08-21T18:01:22.610Z,23.30
2022-08-21T18:03:54.318Z,26.80
2022-08-21T18:06:25.932Z,21.20
2022-08-21T18:11:29.513Z,13.50
2022-08-21T18:14:06.744Z,25.70
2022-08-21T18:16:39.411Z,19.20
2022-08-21T18:19:15.748Z,23.70
2022-08-21T18:21:47.429Z,31.20
2022-08-21T18:24:19.239Z,17.50
2022-08-21T18:26:51.187Z,20.20
2022-08-21T18:29:23.156Z,18.10
2022-08-21T18:31:54.586Z,22.60
2022-08-21T18:34:28.281Z,15.10
2022-08-21T18:36:59.936Z,19.60
2022-08-21T18:42:15.337Z,16.80
2022-08-21T18:44:47.799Z,18.20
2022-08-21T18:47:22.530Z,16.30
2022-08-21T18:49:54.175Z,25.30
2022-08-21T18:55:17.050Z,17.50
2022-08-21T18:57:48.680Z,22.20
2022-08-21T19:00:21.912Z,12.70
2022-08-21T19:02:53.507Z,14.40
2022-08-21T19:07:55.479Z,18.50
2022-08-21T19:10:29.559Z,15.10
2022-08-21T19:13:04.315Z,17.20
2022-08-21T19:15:39.571Z,19.00
2022-08-21T19:18:11.943Z,17.60
2022-08-21T19:20:44.750Z,28.20
2022-08-21T19:23:19.312Z,20.50
2022-08-21T19:26:02.312Z,19.90
2022-08-21T19:28:36.455Z,15.70
2022-08-21T19:31:11.090Z,12.80
2022-08-21T19:33:44.369Z,23.90
2022-08-21T19:36:16.274Z,14.90
2022-08-21T19:38:48.519Z,18.10
2022-08-21T19:41:21.400Z,21.10
2022-08-21T19:43:55.147Z,19.70
2022-08-21T19:46:30.740Z,14.90
2022-08-21T19:49:02.484Z,12.20
2022-08-21T19:51:34.137Z,15.20
2022-08-21T19:56:35.800Z,18.50
2022-08-21T19:59:09.512Z,15.30
2022-08-21T20:01:41.733Z,18.60
2022-08-21T20:04:19.278Z,23.30
2022-08-21T20:06:51.413Z,24.80
2022-08-21T20:09:24.483Z,29.50
2022-08-21T20:11:56.998Z,25.50
2022-08-21T20:14:30.517Z,19.30
2022-08-21T20:17:03.662Z,20.80
2022-08-21T20:19:35.210Z,12.90
2022-08-21T20:22:07.577Z,18.90
2022-08-21T20:24:42.585Z,21.30
2022-08-21T20:27:18.076Z,21.70
2022-08-21T20:29:51.876Z,20.10
2022-08-21T20:34:55.091Z,16.70
2022-08-21T20:37:36.383Z,20.00
2022-08-21T20:40:20.838Z,9.80
2022-08-21T20:42:54.577Z,20.30
2022-08-21T20:45:27.456Z,22.80
2022-08-21T20:48:07.980Z,19.20
2022-08-21T20:50:42.135Z,25.80
2022-08-21T20:53:19.996Z,17.20
2022-08-21T20:55:51.771Z,19.80
2022-08-21T20:58:31.313Z,19.60
2022-08-21T21:01:04.891Z,24.80
2022-08-21T21:03:38.922Z,24.70
2022-08-21T21:06:15.456Z,22.00
2022-08-21T21:08:49.136Z,19.60
2022-08-21T21:11:22.966Z,22.30
2022-08-21T21:13:55.265Z,22.00
2022-08-21T21:16:29.540Z,20.60
2022-08-21T21:19:03.593Z,21.70
2022-08-21T21:21:37.101Z,26.60
2022-08-21T21:24:11.130Z,19.70
2022-08-21T21:26:46.307Z,24.40
2022-08-21T21:29:22.856Z,22.30
2022-08-21T21:31:55.902Z,19.40
2022-08-21T21:34:28.155Z,15.60
2022-08-21T21:37:02.152Z,29.70
2022-08-21T21:39:36.420Z,28.60
2022-08-21T21:42:13.894Z,28.40
2022-08-21T21:45:05.053Z,28.20
2022-08-21T21:47:41.917Z,34.70
2022-08-21T21:50:22.871Z,45.80
2022-08-21T21:53:04.157Z,45.50
2022-08-21T21:56:02.034Z,42.20
2022-08-21T21:58:41.559Z,47.70
2022-08-21T22:01:18.580Z,62.90
2022-08-21T22:03:54.504Z,61.40
2022-08-21T22:06:32.553Z,41.10
2022-08-21T22:09:09.378Z,52.60
2022-08-21T22:11:55.335Z,64.40
2022-08-21T22:14:31.002Z,56.10
2022-08-21T22:17:03.640Z,54.40
2022-08-21T22:19:37.684Z,54.00
2022-08-21T22:22:12.816Z,74.60
2022-08-21T22:24:47.771Z,68.50
2022-08-21T22:27:22.336Z,65.40
2022-08-21T22:29:54.841Z,75.50
2022-08-21T22:32:30.200Z,67.10
2022-08-21T22:35:12.410Z,74.60
2022-08-21T22:37:46.032Z,72.10
2022-08-21T22:40:26.381Z,78.60
2022-08-21T22:43:07.351Z,90.00
2022-08-21T22:46:02.683Z,73.60
2022-08-21T22:48:36.364Z,67.10
2022-08-21T22:51:11.985Z,65.10
2022-08-21T22:53:45.460Z,85.00
2022-08-21T22:56:31.792Z,86.10
2022-08-21T22:59:05.437Z,86.80
2022-08-21T23:01:44.416Z,81.20
2022-08-21T23:04:21.032Z,85.30
2022-08-21T23:06:55.508Z,80.10
2022-08-21T23:09:33.154Z,77.10
2022-08-21T23:12:21.276Z,90.60
2022-08-21T23:15:00.417Z,95.50
2022-08-21T23:17:37.090Z,93.10
2022-08-21T23:20:12.312Z,95.90
2022-08-21T23:22:47.467Z,106.50
2022-08-21T23:25:30.920Z,121.40
2022-08-21T23:28:06.163Z,118.60
2022-08-21T23:30:43.528Z,119.40
2022-08-21T23:33:26.200Z,146.50
2022-08-21T23:36:19.813Z,126.80
2022-08-21T23:39:05.330Z,153.10
2022-08-21T23:41:40.564Z,128.70
2022-08-21T23:44:21.161Z,152.90
2022-08-21T23:47:01.825Z,120.20
2022-08-21T23:49:53.825Z,95.80
2022-08-21T23:52:33.477Z,107.80
2022-08-21T23:55:17.357Z,98.50
2022-08-21T23:57:58.019Z,88.60
